sensor_id;sensor_type;location;lat;lon;timestamp;pressure;altitude;pressure_sealevel;temperature;humidity
57048;BME280;42934;54.294;18.598;2022-07-23T00:02:13;100930.94;;;19.04;82.00
57048;BME280;42934;54.294;18.598;2022-07-23T00:04:44;100935.41;;;19.03;81.88
57048;BME280;42934;54.294;18.598;2022-07-23T00:07:13;100927.63;;;19.00;81.56
57048;BME280;42934;54.294;18.598;2022-07-23T00:09:42;100933.88;;;18.99;81.43
57048;BME280;42934;54.294;18.598;2022-07-23T00:12:11;100931.59;;;18.93;82.00
57048;BME280;42934;54.294;18.598;2022-07-23T00:14:41;100930.75;;;18.93;81.74
57048;BME280;42934;54.294;18.598;2022-07-23T00:17:10;100933.59;;;18.90;81.77
57048;BME280;42934;54.294;18.598;2022-07-23T00:19:39;100931.03;;;18.88;81.78
57048;BME280;42934;54.294;18.598;2022-07-23T00:22:10;100933.03;;;18.84;81.86
57048;BME280;42934;54.294;18.598;2022-07-23T00:24:39;100937.63;;;18.82;81.84
57048;BME280;42934;54.294;18.598;2022-07-23T00:27:09;100937.91;;;18.78;82.08
57048;BME280;42934;54.294;18.598;2022-07-23T00:29:38;100940.75;;;18.75;82.09
57048;BME280;42934;54.294;18.598;2022-07-23T00:32:08;100948.03;;;18.71;81.85
57048;BME280;42934;54.294;18.598;2022-07-23T00:34:37;100946.50;;;18.67;81.50
57048;BME280;42934;54.294;18.598;2022-07-23T00:37:07;100940.44;;;18.65;81.54
57048;BME280;42934;54.294;18.598;2022-07-23T00:39:37;100942.72;;;18.57;81.71
57048;BME280;42934;54.294;18.598;2022-07-23T00:42:07;100944.53;;;18.56;81.95
57048;BME280;42934;54.294;18.598;2022-07-23T00:44:36;100939.28;;;18.55;82.29
57048;BME280;42934;54.294;18.598;2022-07-23T00:47:12;100948.28;;;18.52;82.73
57048;BME280;42934;54.294;18.598;2022-07-23T00:49:42;100939.66;;;18.49;83.24
57048;BME280;42934;54.294;18.598;2022-07-23T00:52:11;100938.69;;;18.50;83.17
57048;BME280;42934;54.294;18.598;2022-07-23T00:54:42;100942.25;;;18.50;83.53
57048;BME280;42934;54.294;18.598;2022-07-23T00:57:11;100931.59;;;18.50;83.46
57048;BME280;42934;54.294;18.598;2022-07-23T00:59:41;100938.03;;;18.46;84.34
57048;BME280;42934;54.294;18.598;2022-07-23T01:02:10;100937.78;;;18.51;84.13
57048;BME280;42934;54.294;18.598;2022-07-23T01:04:40;100937.84;;;18.49;83.93
57048;BME280;42934;54.294;18.598;2022-07-23T01:07:10;100937.09;;;18.47;84.27
57048;BME280;42934;54.294;18.598;2022-07-23T01:09:40;100938.03;;;18.46;84.72
57048;BME280;42934;54.294;18.598;2022-07-23T01:12:11;100943.47;;;18.45;85.21
57048;BME280;42934;54.294;18.598;2022-07-23T01:14:40;100930.25;;;18.43;85.19
57048;BME280;42934;54.294;18.598;2022-07-23T01:17:10;100930.25;;;18.43;84.86
57048;BME280;42934;54.294;18.598;2022-07-23T01:19:39;100932.13;;;18.41;85.54
57048;BME280;42934;54.294;18.598;2022-07-23T01:22:09;100929.41;;;18.43;85.57
57048;BME280;42934;54.294;18.598;2022-07-23T01:24:40;100927.59;;;18.43;86.03
57048;BME280;42934;54.294;18.598;2022-07-23T01:27:10;100923.03;;;18.45;85.61
57048;BME280;42934;54.294;18.598;2022-07-23T01:29:41;100915.06;;;18.45;85.98
57048;BME280;42934;54.294;18.598;2022-07-23T01:32:15;100912.47;;;18.44;86.28
57048;BME280;42934;54.294;18.598;2022-07-23T01:34:45;100911.56;;;18.45;86.27
57048;BME280;42934;54.294;18.598;2022-07-23T01:37:14;100917.91;;;18.42;86.63
57048;BME280;42934;54.294;18.598;2022-07-23T01:39:46;100910.22;;;18.37;86.98
57048;BME280;42934;54.294;18.598;2022-07-23T01:42:15;100911.06;;;18.38;86.54
57048;BME280;42934;54.294;18.598;2022-07-23T01:44:46;100898.72;;;18.37;86.40
57048;BME280;42934;54.294;18.598;2022-07-23T01:47:20;100904.16;;;18.35;86.11
57048;BME280;42934;54.294;18.598;2022-07-23T01:49:53;100902.41;;;18.34;85.50
57048;BME280;42934;54.294;18.598;2022-07-23T01:52:38;100903.28;;;18.35;85.08
57048;BME280;42934;54.294;18.598;2022-07-23T01:55:09;100896.63;;;18.28;84.87
57048;BME280;42934;54.294;18.598;2022-07-23T01:57:47;100895.78;;;18.27;84.73
57048;BME280;42934;54.294;18.598;2022-07-23T02:00:20;100892.47;;;18.24;84.88
57048;BME280;42934;54.294;18.598;2022-07-23T02:02:52;100897.09;;;18.20;84.82
57048;BME280;42934;54.294;18.598;2022-07-23T02:05:22;100895.38;;;18.19;84.57
57048;BME280;42934;54.294;18.598;2022-07-23T02:07:52;100899.84;;;18.19;84.60
57048;BME280;42934;54.294;18.598;2022-07-23T02:10:23;100898.22;;;18.16;84.67
57048;BME280;42934;54.294;18.598;2022-07-23T02:12:53;100898.31;;;18.14;84.81
57048;BME280;42934;54.294;18.598;2022-07-23T02:15:23;100902.03;;;18.12;84.31
57048;BME280;42934;54.294;18.598;2022-07-23T02:17:52;100904.69;;;18.12;84.22
57048;BME280;42934;54.294;18.598;2022-07-23T02:20:22;100902.22;;;18.09;84.12
57048;BME280;42934;54.294;18.598;2022-07-23T02:22:51;100897.16;;;18.04;83.95
57048;BME280;42934;54.294;18.598;2022-07-23T02:25:20;100900.09;;;18.00;84.51
57048;BME280;42934;54.294;18.598;2022-07-23T02:27:56;100897.06;;;17.91;84.98
57048;BME280;42934;54.294;18.598;2022-07-23T02:30:25;100905.94;;;17.90;85.00
57048;BME280;42934;54.294;18.598;2022-07-23T02:32:55;100908.72;;;17.89;84.96
57048;BME280;42934;54.294;18.598;2022-07-23T02:35:24;100897.41;;;17.85;85.24
57048;BME280;42934;54.294;18.598;2022-07-23T02:37:54;100894.75;;;17.85;84.88
57048;BME280;42934;54.294;18.598;2022-07-23T02:40:24;100890.47;;;17.83;85.12
57048;BME280;42934;54.294;18.598;2022-07-23T02:42:55;100885.06;;;17.84;84.99
57048;BME280;42934;54.294;18.598;2022-07-23T02:45:24;100884.22;;;17.84;85.14
57048;BME280;42934;54.294;18.598;2022-07-23T02:47:55;100880.78;;;17.82;85.26
57048;BME280;42934;54.294;18.598;2022-07-23T02:50:24;100878.22;;;17.80;85.26
57048;BME280;42934;54.294;18.598;2022-07-23T02:52:56;100887.06;;;17.81;85.14
57048;BME280;42934;54.294;18.598;2022-07-23T02:55:26;100889.78;;;17.79;85.00
57048;BME280;42934;54.294;18.598;2022-07-23T02:57:57;100889.94;;;17.76;85.10
57048;BME280;42934;54.294;18.598;2022-07-23T03:00:26;100887.56;;;17.71;85.42
57048;BME280;42934;54.294;18.598;2022-07-23T03:02:56;100884.91;;;17.71;85.14
57048;BME280;42934;54.294;18.598;2022-07-23T03:05:26;100887.94;;;17.65;85.69
57048;BME280;42934;54.294;18.598;2022-07-23T03:07:55;100888.19;;;17.61;85.32
57048;BME280;42934;54.294;18.598;2022-07-23T03:10:25;100882.28;;;17.56;85.32
57048;BME280;42934;54.294;18.598;2022-07-23T03:12:55;100885.41;;;17.48;86.22
57048;BME280;42934;54.294;18.598;2022-07-23T03:15:25;100885.75;;;17.42;87.08
57048;BME280;42934;54.294;18.598;2022-07-23T03:17:55;100886.41;;;17.45;86.03
57048;BME280;42934;54.294;18.598;2022-07-23T03:20:24;100888.28;;;17.43;87.14
57048;BME280;42934;54.294;18.598;2022-07-23T03:22:54;100886.31;;;17.47;86.78
57048;BME280;42934;54.294;18.598;2022-07-23T03:25:23;100886.31;;;17.47;86.52
57048;BME280;42934;54.294;18.598;2022-07-23T03:27:52;100884.44;;;17.49;86.80
57048;BME280;42934;54.294;18.598;2022-07-23T03:30:23;100887.03;;;17.51;86.92
57048;BME280;42934;54.294;18.598;2022-07-23T03:32:53;100888.72;;;17.52;86.96
57048;BME280;42934;54.294;18.598;2022-07-23T03:35:23;100891.31;;;17.53;87.00
57048;BME280;42934;54.294;18.598;2022-07-23T03:38:08;100893.00;;;17.54;87.09
57048;BME280;42934;54.294;18.598;2022-07-23T03:40:38;100884.06;;;17.55;87.19
57048;BME280;42934;54.294;18.598;2022-07-23T03:43:08;100891.38;;;17.52;87.16
57048;BME280;42934;54.294;18.598;2022-07-23T03:45:38;100880.56;;;17.55;87.31
57048;BME280;42934;54.294;18.598;2022-07-23T03:48:09;100884.84;;;17.57;87.66
57048;BME280;42934;54.294;18.598;2022-07-23T03:50:39;100882.09;;;17.59;87.11
57048;BME280;42934;54.294;18.598;2022-07-23T03:53:08;100883.66;;;17.63;86.93
57048;BME280;42934;54.294;18.598;2022-07-23T03:55:37;100885.44;;;17.62;86.63
57048;BME280;42934;54.294;18.598;2022-07-23T03:58:07;100882.03;;;17.60;86.64
57048;BME280;42934;54.294;18.598;2022-07-23T04:00:37;100878.34;;;17.63;86.36
57048;BME280;42934;54.294;18.598;2022-07-23T04:03:07;100881.94;;;17.62;86.53
57048;BME280;42934;54.294;18.598;2022-07-23T04:05:37;100876.78;;;17.59;86.72
57048;BME280;42934;54.294;18.598;2022-07-23T04:08:08;100880.41;;;17.58;86.87
57048;BME280;42934;54.294;18.598;2022-07-23T04:10:40;100877.75;;;17.58;86.76
57048;BME280;42934;54.294;18.598;2022-07-23T04:13:11;100878.41;;;17.61;86.30
57048;BME280;42934;54.294;18.598;2022-07-23T04:15:42;100870.44;;;17.61;85.93
57048;BME280;42934;54.294;18.598;2022-07-23T04:18:11;100859.63;;;17.64;86.45
57048;BME280;42934;54.294;18.598;2022-07-23T04:20:52;100873.03;;;17.63;86.45
57048;BME280;42934;54.294;18.598;2022-07-23T04:23:22;100872.00;;;17.65;86.41
57048;BME280;42934;54.294;18.598;2022-07-23T04:25:53;100863.75;;;17.70;86.34
57048;BME280;42934;54.294;18.598;2022-07-23T04:28:24;100865.53;;;17.69;86.13
57048;BME280;42934;54.294;18.598;2022-07-23T04:30:56;100867.25;;;17.70;86.60
57048;BME280;42934;54.294;18.598;2022-07-23T04:33:26;100860.06;;;17.73;86.66
57048;BME280;42934;54.294;18.598;2022-07-23T04:35:58;100852.09;;;17.73;86.67
57048;BME280;42934;54.294;18.598;2022-07-23T04:38:28;100855.59;;;17.73;86.91
57048;BME280;42934;54.294;18.598;2022-07-23T04:41:01;100848.25;;;17.78;87.00
57048;BME280;42934;54.294;18.598;2022-07-23T04:43:30;100848.06;;;17.81;86.70
57048;BME280;42934;54.294;18.598;2022-07-23T04:46:01;100844.63;;;17.79;86.72
57048;BME280;42934;54.294;18.598;2022-07-23T04:48:36;100855.06;;;17.82;86.82
57048;BME280;42934;54.294;18.598;2022-07-23T04:51:09;100850.53;;;17.84;86.65
57048;BME280;42934;54.294;18.598;2022-07-23T04:53:40;100844.19;;;17.87;86.54
57048;BME280;42934;54.294;18.598;2022-07-23T04:56:11;100843.81;;;17.93;86.30
57048;BME280;42934;54.294;18.598;2022-07-23T04:58:41;100844.78;;;17.92;86.62
57048;BME280;42934;54.294;18.598;2022-07-23T05:01:15;100839.84;;;18.00;86.19
57048;BME280;42934;54.294;18.598;2022-07-23T05:03:45;100840.59;;;18.02;86.57
57048;BME280;42934;54.294;18.598;2022-07-23T05:06:16;100844.09;;;18.03;86.54
57048;BME280;42934;54.294;18.598;2022-07-23T05:08:47;100844.69;;;18.08;86.34
57048;BME280;42934;54.294;18.598;2022-07-23T05:11:16;100844.59;;;18.09;86.12
57048;BME280;42934;54.294;18.598;2022-07-23T05:13:52;100847.25;;;18.09;86.54
57048;BME280;42934;54.294;18.598;2022-07-23T05:16:23;100832.06;;;18.11;86.37
57048;BME280;42934;54.294;18.598;2022-07-23T05:18:58;100831.78;;;18.16;86.15
57048;BME280;42934;54.294;18.598;2022-07-23T05:21:28;100827.50;;;18.13;86.46
57048;BME280;42934;54.294;18.598;2022-07-23T05:23:57;100833.41;;;18.19;86.26
57048;BME280;42934;54.294;18.598;2022-07-23T05:26:27;100830.44;;;18.23;85.82
57048;BME280;42934;54.294;18.598;2022-07-23T05:28:57;100838.16;;;18.28;85.65
57048;BME280;42934;54.294;18.598;2022-07-23T05:31:28;100844.97;;;18.32;85.24
57048;BME280;42934;54.294;18.598;2022-07-23T05:33:58;100835.31;;;18.31;85.32
57048;BME280;42934;54.294;18.598;2022-07-23T05:36:27;100834.16;;;18.35;84.62
57048;BME280;42934;54.294;18.598;2022-07-23T05:38:58;100838.22;;;18.41;83.93
57048;BME280;42934;54.294;18.598;2022-07-23T05:41:30;100835.97;;;18.49;83.61
57048;BME280;42934;54.294;18.598;2022-07-23T05:44:01;100833.03;;;18.53;83.15
57048;BME280;42934;54.294;18.598;2022-07-23T05:46:33;100834.13;;;18.64;82.95
57048;BME280;42934;54.294;18.598;2022-07-23T05:49:06;100832.72;;;18.58;82.51
57048;BME280;42934;54.294;18.598;2022-07-23T05:52:08;100836.59;;;18.67;81.88
57048;BME280;42934;54.294;18.598;2022-07-23T05:55:05;100835.97;;;18.77;81.81
57048;BME280;42934;54.294;18.598;2022-07-23T05:57:36;100836.88;;;18.76;81.39
57048;BME280;42934;54.294;18.598;2022-07-23T06:00:05;100830.53;;;18.79;80.94
57048;BME280;42934;54.294;18.598;2022-07-23T06:02:42;100831.94;;;18.84;81.25
57048;BME280;42934;54.294;18.598;2022-07-23T06:05:13;100837.06;;;18.88;80.94
57048;BME280;42934;54.294;18.598;2022-07-23T06:07:44;100831.47;;;18.92;80.90
57048;BME280;42934;54.294;18.598;2022-07-23T06:10:15;100831.25;;;18.95;80.46
57048;BME280;42934;54.294;18.598;2022-07-23T06:12:44;100828.97;;;19.03;80.43
57048;BME280;42934;54.294;18.598;2022-07-23T06:15:13;100833.22;;;19.06;80.26
57048;BME280;42934;54.294;18.598;2022-07-23T06:17:44;100822.06;;;19.14;79.85
57048;BME280;42934;54.294;18.598;2022-07-23T06:20:13;100809.72;;;19.13;78.99
57048;BME280;42934;54.294;18.598;2022-07-23T06:22:43;100806.66;;;19.19;79.05
57048;BME280;42934;54.294;18.598;2022-07-23T06:25:12;100805.38;;;19.24;79.19
57048;BME280;42934;54.294;18.598;2022-07-23T06:27:47;100798.53;;;19.20;78.68
57048;BME280;42934;54.294;18.598;2022-07-23T06:30:17;100787.09;;;19.33;78.76
57048;BME280;42934;54.294;18.598;2022-07-23T06:32:49;100784.22;;;19.36;78.25
57048;BME280;42934;54.294;18.598;2022-07-23T06:35:19;100798.94;;;19.41;77.98
57048;BME280;42934;54.294;18.598;2022-07-23T06:37:48;100813.97;;;19.42;77.01
57048;BME280;42934;54.294;18.598;2022-07-23T06:40:18;100817.16;;;19.47;77.08
57048;BME280;42934;54.294;18.598;2022-07-23T06:42:48;100826.56;;;19.53;77.09
57048;BME280;42934;54.294;18.598;2022-07-23T06:45:22;100816.53;;;19.57;75.85
57048;BME280;42934;54.294;18.598;2022-07-23T06:47:54;100810.50;;;19.67;76.44
57048;BME280;42934;54.294;18.598;2022-07-23T06:50:23;100814.91;;;19.68;76.33
57048;BME280;42934;54.294;18.598;2022-07-23T06:52:53;100814.47;;;19.74;76.18
57048;BME280;42934;54.294;18.598;2022-07-23T06:55:22;100817.91;;;19.77;76.30
57048;BME280;42934;54.294;18.598;2022-07-23T06:57:51;100815.88;;;19.80;76.10
57048;BME280;42934;54.294;18.598;2022-07-23T07:00:21;100816.81;;;19.79;76.01
57048;BME280;42934;54.294;18.598;2022-07-23T07:02:50;100819.47;;;19.79;76.23
57048;BME280;42934;54.294;18.598;2022-07-23T07:05:21;100820.78;;;19.86;75.94
57048;BME280;42934;54.294;18.598;2022-07-23T07:07:53;100820.00;;;19.97;75.90
57048;BME280;42934;54.294;18.598;2022-07-23T07:10:23;100810.94;;;20.00;75.73
57048;BME280;42934;54.294;18.598;2022-07-23T07:12:52;100814.28;;;20.03;75.24
57048;BME280;42934;54.294;18.598;2022-07-23T07:15:21;100817.44;;;20.08;75.23
57048;BME280;42934;54.294;18.598;2022-07-23T07:17:51;100815.63;;;20.09;74.33
57048;BME280;42934;54.294;18.598;2022-07-23T07:20:21;100823.31;;;20.13;74.52
57048;BME280;42934;54.294;18.598;2022-07-23T07:22:51;100817.56;;;20.19;74.68
57048;BME280;42934;54.294;18.598;2022-07-23T07:25:20;100815.53;;;20.23;74.46
57048;BME280;42934;54.294;18.598;2022-07-23T07:27:50;100815.09;;;20.29;74.41
57048;BME280;42934;54.294;18.598;2022-07-23T07:30:19;100806.03;;;20.32;74.33
57048;BME280;42934;54.294;18.598;2022-07-23T07:32:49;100808.47;;;20.35;73.77
57048;BME280;42934;54.294;18.598;2022-07-23T07:35:25;100810.06;;;20.37;73.71
57048;BME280;42934;54.294;18.598;2022-07-23T07:37:54;100808.03;;;20.41;73.28
57048;BME280;42934;54.294;18.598;2022-07-23T07:40:24;100805.59;;;20.51;73.50
57048;BME280;42934;54.294;18.598;2022-07-23T07:43:00;100815.72;;;20.58;72.97
57048;BME280;42934;54.294;18.598;2022-07-23T07:45:31;100804.94;;;20.60;71.95
57048;BME280;42934;54.294;18.598;2022-07-23T07:48:00;100798.41;;;20.64;72.37
57048;BME280;42934;54.294;18.598;2022-07-23T07:50:31;100802.13;;;20.74;72.38
57048;BME280;42934;54.294;18.598;2022-07-23T07:53:01;100801.69;;;20.80;72.03
57048;BME280;42934;54.294;18.598;2022-07-23T07:55:30;100798.56;;;20.86;71.76
57048;BME280;42934;54.294;18.598;2022-07-23T07:57:59;100803.34;;;20.94;72.09
57048;BME280;42934;54.294;18.598;2022-07-23T08:00:29;100808.00;;;21.03;71.06
57048;BME280;42934;54.294;18.598;2022-07-23T08:02:59;100807.31;;;21.13;71.85
57048;BME280;42934;54.294;18.598;2022-07-23T08:05:32;100805.78;;;21.21;70.62
57048;BME280;42934;54.294;18.598;2022-07-23T08:08:01;100805.78;;;21.21;69.78
57048;BME280;42934;54.294;18.598;2022-07-23T08:10:30;100807.75;;;21.30;70.10
57048;BME280;42934;54.294;18.598;2022-07-23T08:13:00;100808.28;;;21.36;69.22
57048;BME280;42934;54.294;18.598;2022-07-23T08:15:30;100793.00;;;21.38;68.22
57048;BME280;42934;54.294;18.598;2022-07-23T08:18:00;100799.91;;;21.40;67.42
57048;BME280;42934;54.294;18.598;2022-07-23T08:20:31;100798.09;;;21.41;68.02
57048;BME280;42934;54.294;18.598;2022-07-23T08:23:04;100804.19;;;21.43;67.98
57048;BME280;42934;54.294;18.598;2022-07-23T08:25:34;100812.81;;;21.46;67.54
57048;BME280;42934;54.294;18.598;2022-07-23T08:28:06;100811.00;;;21.47;67.56
57048;BME280;42934;54.294;18.598;2022-07-23T08:30:36;100804.50;;;21.62;68.27
57048;BME280;42934;54.294;18.598;2022-07-23T08:33:07;100802.81;;;21.72;66.79
57048;BME280;42934;54.294;18.598;2022-07-23T08:35:59;100805.59;;;21.82;65.65
57048;BME280;42934;54.294;18.598;2022-07-23T08:38:31;100798.84;;;21.89;65.66
57048;BME280;42934;54.294;18.598;2022-07-23T08:41:01;100797.59;;;21.82;65.35
57048;BME280;42934;54.294;18.598;2022-07-23T08:43:33;100800.44;;;21.92;66.42
57048;BME280;42934;54.294;18.598;2022-07-23T08:46:04;100787.28;;;21.89;65.23
57048;BME280;42934;54.294;18.598;2022-07-23T08:48:35;100793.75;;;21.97;65.67
57048;BME280;42934;54.294;18.598;2022-07-23T08:51:08;100790.69;;;21.91;65.47
57048;BME280;42934;54.294;18.598;2022-07-23T08:53:38;100784.84;;;21.97;66.04
57048;BME280;42934;54.294;18.598;2022-07-23T08:56:08;100786.44;;;21.99;65.76
57048;BME280;42934;54.294;18.598;2022-07-23T08:58:38;100792.63;;;22.11;66.17
57048;BME280;42934;54.294;18.598;2022-07-23T09:01:07;100793.13;;;22.16;65.87
57048;BME280;42934;54.294;18.598;2022-07-23T09:03:37;100790.47;;;22.16;66.03
57048;BME280;42934;54.294;18.598;2022-07-23T09:06:08;100788.56;;;22.30;65.70
57048;BME280;42934;54.294;18.598;2022-07-23T09:08:39;100786.34;;;22.35;64.78
57048;BME280;42934;54.294;18.598;2022-07-23T09:11:09;100789.50;;;22.40;64.61
57048;BME280;42934;54.294;18.598;2022-07-23T09:13:40;100787.44;;;22.43;64.93
57048;BME280;42934;54.294;18.598;2022-07-23T09:16:12;100780.25;;;22.55;64.74
57048;BME280;42934;54.294;18.598;2022-07-23T09:18:45;100789.25;;;22.65;64.64
57048;BME280;42934;54.294;18.598;2022-07-23T09:21:22;100781.66;;;22.71;64.56
57048;BME280;42934;54.294;18.598;2022-07-23T09:23:55;100787.41;;;22.77;64.82
57048;BME280;42934;54.294;18.598;2022-07-23T09:26:33;100790.66;;;22.81;63.91
57048;BME280;42934;54.294;18.598;2022-07-23T09:29:09;100782.63;;;22.81;63.22
57048;BME280;42934;54.294;18.598;2022-07-23T09:31:49;100787.13;;;22.92;64.06
57048;BME280;42934;54.294;18.598;2022-07-23T09:34:22;100785.78;;;22.86;63.25
57048;BME280;42934;54.294;18.598;2022-07-23T09:36:54;100774.56;;;22.92;63.21
57048;BME280;42934;54.294;18.598;2022-07-23T09:39:27;100769.22;;;22.92;63.26
57048;BME280;42934;54.294;18.598;2022-07-23T09:41:57;100770.44;;;22.99;63.42
57048;BME280;42934;54.294;18.598;2022-07-23T09:44:26;100769.06;;;23.05;64.66
57048;BME280;42934;54.294;18.598;2022-07-23T09:46:59;100766.47;;;23.15;62.29
57048;BME280;42934;54.294;18.598;2022-07-23T09:49:29;100762.44;;;23.20;62.48
57048;BME280;42934;54.294;18.598;2022-07-23T09:52:01;100763.63;;;23.27;63.02
57048;BME280;42934;54.294;18.598;2022-07-23T09:54:33;100759.59;;;23.33;62.31
57048;BME280;42934;54.294;18.598;2022-07-23T09:57:06;100758.22;;;23.39;61.91
57048;BME280;42934;54.294;18.598;2022-07-23T09:59:40;100757.53;;;23.46;61.01
57048;BME280;42934;54.294;18.598;2022-07-23T10:02:11;100752.84;;;23.60;60.81
57048;BME280;42934;54.294;18.598;2022-07-23T10:05:14;100758.03;;;23.72;61.19
57048;BME280;42934;54.294;18.598;2022-07-23T10:08:11;100771.88;;;23.77;60.67
57048;BME280;42934;54.294;18.598;2022-07-23T10:11:04;100767.22;;;23.79;61.02
57048;BME280;42934;54.294;18.598;2022-07-23T10:13:35;100787.13;;;23.77;60.44
57048;BME280;42934;54.294;18.598;2022-07-23T10:16:58;100784.34;;;23.67;60.90
57048;BME280;42934;54.294;18.598;2022-07-23T10:19:29;100784.28;;;23.57;60.51
57048;BME280;42934;54.294;18.598;2022-07-23T10:22:42;100784.66;;;23.53;60.49
57048;BME280;42934;54.294;18.598;2022-07-23T10:25:58;100802.16;;;23.47;61.07
57048;BME280;42934;54.294;18.598;2022-07-23T10:29:06;100802.25;;;23.46;61.65
57048;BME280;42934;54.294;18.598;2022-07-23T10:32:09;100802.41;;;23.44;61.82
57048;BME280;42934;54.294;18.598;2022-07-23T10:35:58;100802.41;;;23.44;62.22
57048;BME280;42934;54.294;18.598;2022-07-23T10:38:52;100790.81;;;23.44;61.88
57048;BME280;42934;54.294;18.598;2022-07-23T10:41:44;100794.75;;;23.40;61.71
57048;BME280;42934;54.294;18.598;2022-07-23T10:44:14;100800.47;;;23.35;61.98
57048;BME280;42934;54.294;18.598;2022-07-23T10:46:55;100797.63;;;23.27;61.76
57048;BME280;42934;54.294;18.598;2022-07-23T10:49:34;100802.59;;;23.20;61.68
57048;BME280;42934;54.294;18.598;2022-07-23T10:52:21;100806.28;;;23.19;61.86
57048;BME280;42934;54.294;18.598;2022-07-23T10:54:53;100807.03;;;23.10;61.59
57048;BME280;42934;54.294;18.598;2022-07-23T10:57:24;100807.88;;;23.10;62.20
57048;BME280;42934;54.294;18.598;2022-07-23T11:00:16;100813.00;;;23.13;62.22
57048;BME280;42934;54.294;18.598;2022-07-23T11:02:50;100820.19;;;23.13;63.30
57048;BME280;42934;54.294;18.598;2022-07-23T11:05:21;100813.13;;;23.12;64.38
57048;BME280;42934;54.294;18.598;2022-07-23T11:08:10;100814.94;;;23.11;65.26
57048;BME280;42934;54.294;18.598;2022-07-23T11:10:41;100808.88;;;23.09;64.59
57048;BME280;42934;54.294;18.598;2022-07-23T11:13:29;100803.16;;;23.03;64.92
57048;BME280;42934;54.294;18.598;2022-07-23T11:19:12;100801.72;;;22.99;65.33
57048;BME280;42934;54.294;18.598;2022-07-23T11:21:57;100819.63;;;22.87;64.49
57048;BME280;42934;54.294;18.598;2022-07-23T11:24:27;100815.84;;;22.89;64.56
57048;BME280;42934;54.294;18.598;2022-07-23T11:26:59;100819.88;;;22.84;65.40
57048;BME280;42934;54.294;18.598;2022-07-23T11:29:47;100821.69;;;22.83;66.08
57048;BME280;42934;54.294;18.598;2022-07-23T11:32:31;100819.97;;;22.82;67.16
57048;BME280;42934;54.294;18.598;2022-07-23T11:35:03;100828.16;;;22.81;67.02
57048;BME280;42934;54.294;18.598;2022-07-23T11:37:33;100824.63;;;22.69;68.28
57048;BME280;42934;54.294;18.598;2022-07-23T11:40:06;100824.88;;;22.66;68.05
57048;BME280;42934;54.294;18.598;2022-07-23T11:42:40;100830.25;;;22.66;68.00
57048;BME280;42934;54.294;18.598;2022-07-23T11:45:21;100835.69;;;22.64;68.60
57048;BME280;42934;54.294;18.598;2022-07-23T11:47:51;100834.25;;;22.60;67.79
57048;BME280;42934;54.294;18.598;2022-07-23T11:50:24;100839.38;;;22.52;68.49
57048;BME280;42934;54.294;18.598;2022-07-23T11:52:54;100841.94;;;22.54;68.60
57048;BME280;42934;54.294;18.598;2022-07-23T11:55:24;100846.53;;;22.40;68.69
57048;BME280;42934;54.294;18.598;2022-07-23T11:57:53;100844.34;;;22.34;68.74
57048;BME280;42934;54.294;18.598;2022-07-23T12:00:32;100844.34;;;22.34;68.33
57048;BME280;42934;54.294;18.598;2022-07-23T12:03:08;100846.28;;;22.32;68.47
57048;BME280;42934;54.294;18.598;2022-07-23T12:05:38;100830.72;;;22.15;68.14
57048;BME280;42934;54.294;18.598;2022-07-23T12:08:10;100824.19;;;22.19;67.90
57048;BME280;42934;54.294;18.598;2022-07-23T12:10:47;100822.25;;;22.21;67.99
57048;BME280;42934;54.294;18.598;2022-07-23T12:13:20;100815.13;;;22.09;68.15
57048;BME280;42934;54.294;18.598;2022-07-23T12:15:56;100784.28;;;22.16;69.02
57048;BME280;42934;54.294;18.598;2022-07-23T12:18:32;100779.44;;;22.21;69.56
57048;BME280;42934;54.294;18.598;2022-07-23T12:21:04;100770.41;;;22.11;68.65
57048;BME280;42934;54.294;18.598;2022-07-23T12:23:35;100748.75;;;22.14;69.46
57048;BME280;42934;54.294;18.598;2022-07-23T12:26:06;100745.13;;;22.15;70.08
57048;BME280;42934;54.294;18.598;2022-07-23T12:28:39;100752.41;;;22.13;69.01
57048;BME280;42934;54.294;18.598;2022-07-23T12:31:14;100761.63;;;22.09;70.02
57048;BME280;42934;54.294;18.598;2022-07-23T12:33:43;100801.03;;;22.07;68.77
57048;BME280;42934;54.294;18.598;2022-07-23T12:36:14;100811.97;;;22.04;68.99
57048;BME280;42934;54.294;18.598;2022-07-23T12:38:47;100811.34;;;22.00;69.10
57048;BME280;42934;54.294;18.598;2022-07-23T12:41:17;100804.56;;;22.07;69.10
57048;BME280;42934;54.294;18.598;2022-07-23T12:43:49;100819.88;;;22.05;69.20
57048;BME280;42934;54.294;18.598;2022-07-23T12:46:21;100829.84;;;21.92;69.38
57048;BME280;42934;54.294;18.598;2022-07-23T12:48:52;100825.47;;;22.02;69.67
57048;BME280;42934;54.294;18.598;2022-07-23T12:51:24;100818.78;;;22.08;69.58
57048;BME280;42934;54.294;18.598;2022-07-23T12:53:56;100813.44;;;22.08;70.35
57048;BME280;42934;54.294;18.598;2022-07-23T12:56:28;100816.59;;;22.02;69.89
57048;BME280;42934;54.294;18.598;2022-07-23T12:59:04;100829.22;;;21.99;69.00
57048;BME280;42934;54.294;18.598;2022-07-23T13:01:38;100820.22;;;21.89;68.60
57048;BME280;42934;54.294;18.598;2022-07-23T13:04:09;100823.03;;;21.99;68.22
57048;BME280;42934;54.294;18.598;2022-07-23T13:06:43;100824.72;;;21.89;66.70
57048;BME280;42934;54.294;18.598;2022-07-23T13:09:15;100817.81;;;21.97;66.80
57048;BME280;42934;54.294;18.598;2022-07-23T13:11:46;100815.25;;;21.96;66.94
57048;BME280;42934;54.294;18.598;2022-07-23T13:14:16;100826.19;;;21.93;67.00